createdAt,value
2022-10-02T00:00:16.499Z,12.5
2022-10-02T00:05:18.621Z,12.4
2022-10-02T00:10:21.489Z,12.4
2022-10-02T00:15:23.526Z,12.3
2022-10-02T00:20:25.581Z,12.4
2022-10-02T00:25:27.645Z,12.3
2022-10-02T00:30:29.625Z,12.3
2022-10-02T00:35:31.532Z,12.2
2022-10-02T00:40:33.889Z,12.3
2022-10-02T00:45:35.984Z,12.2
2022-10-02T00:50:38.142Z,12.2
2022-10-02T00:55:40.377Z,12.2
2022-10-02T01:00:42.581Z,12.2
2022-10-02T01:05:44.603Z,12.1
2022-10-02T01:10:47.063Z,12.1
2022-10-02T01:15:49.020Z,12
2022-10-02T01:20:50.982Z,12
2022-10-02T01:25:53.447Z,12
2022-10-02T01:30:55.362Z,11.9
2022-10-02T01:35:57.364Z,11.8
2022-10-02T01:40:59.265Z,11.8
2022-10-02T01:46:01.430Z,11.7
2022-10-02T01:51:03.596Z,11.7
2022-10-02T01:56:05.493Z,11.6
2022-10-02T02:01:07.618Z,11.5
2022-10-02T02:06:09.841Z,11.5
2022-10-02T02:11:11.827Z,11.5
2022-10-02T02:16:14.257Z,11.4
2022-10-02T02:21:16.296Z,11.4
2022-10-02T02:26:18.386Z,11.5
2022-10-02T02:31:20.781Z,11.5
2022-10-02T02:36:22.970Z,11.4
2022-10-02T02:41:25.442Z,11.2
2022-10-02T02:46:27.344Z,11.2
2022-10-02T02:51:29.326Z,11.2
2022-10-02T02:56:31.453Z,11.2
2022-10-02T03:01:33.862Z,11.2
2022-10-02T03:06:37.172Z,11.2
2022-10-02T03:11:39.926Z,11.1
2022-10-02T03:16:41.903Z,11.2
2022-10-02T03:21:43.865Z,11.2
2022-10-02T03:26:45.793Z,11.2
2022-10-02T03:31:48.133Z,11.2
2022-10-02T03:36:50.221Z,11.2
2022-10-02T03:41:52.650Z,11.1
2022-10-02T03:46:54.790Z,11.1
2022-10-02T03:51:57.959Z,11.1
2022-10-02T03:57:00.349Z,11.1
2022-10-02T04:02:02.836Z,11.1
2022-10-02T04:07:04.888Z,11.1
2022-10-02T04:12:07.424Z,11.1
2022-10-02T04:17:09.429Z,11.1
2022-10-02T04:22:11.450Z,11.2
2022-10-02T04:27:13.970Z,11.3
2022-10-02T04:32:15.894Z,11.3
2022-10-02T04:37:17.807Z,11.3
2022-10-02T04:42:20.226Z,11.5
2022-10-02T04:47:22.228Z,11.5
2022-10-02T04:52:24.225Z,11.5
2022-10-02T04:57:26.635Z,11.5
2022-10-02T05:02:29.585Z,11.5
2022-10-02T05:07:31.817Z,11.5
2022-10-02T05:12:34.233Z,11.9
2022-10-02T05:17:36.362Z,11.8
2022-10-02T05:22:38.385Z,12.3
2022-10-02T05:27:40.520Z,12.7
2022-10-02T05:32:42.864Z,13
2022-10-02T05:37:44.777Z,13
2022-10-02T05:42:46.914Z,13.3
2022-10-02T05:47:48.826Z,13.6
2022-10-02T05:52:50.847Z,13.9
2022-10-02T05:57:53.238Z,14.7
2022-10-02T06:02:55.519Z,14.7
2022-10-02T06:07:57.574Z,14.8
2022-10-02T06:13:00.161Z,15.3
2022-10-02T06:18:02.197Z,15.3
2022-10-02T06:23:04.109Z,15.5
2022-10-02T06:28:06.687Z,16
2022-10-02T06:33:08.753Z,16
2022-10-02T06:38:10.640Z,16.5
2022-10-02T06:43:12.777Z,16.8
2022-10-02T06:48:14.672Z,17.2
2022-10-02T06:53:16.600Z,17.8
2022-10-02T06:58:18.696Z,18.1
2022-10-02T07:03:20.911Z,18.5
2022-10-02T07:08:23.310Z,20.4
2022-10-02T07:13:25.708Z,22
2022-10-02T07:18:27.762Z,22
2022-10-02T07:23:29.688Z,23.9
2022-10-02T07:33:32.433Z,28
2022-10-02T07:48:35.446Z,29.2
2022-10-02T07:53:37.292Z,26.7
2022-10-02T07:58:39.469Z,23.4
2022-10-02T08:03:41.672Z,24.5
2022-10-02T08:08:43.592Z,25.5
2022-10-02T08:18:45.890Z,25.5
2022-10-02T08:23:47.907Z,24.7
2022-10-02T08:28:50.073Z,26.1
2022-10-02T08:38:56.549Z,22.6
2022-10-02T08:43:58.764Z,22.4
2022-10-02T08:49:00.791Z,23.7
2022-10-02T08:54:02.681Z,23.4
2022-10-02T08:59:05.152Z,28.4
2022-10-02T09:04:07.456Z,28.3
2022-10-02T09:09:09.339Z,26.6
2022-10-02T09:14:11.463Z,25.3
2022-10-02T09:19:13.440Z,27.8
2022-10-02T09:24:15.393Z,27.9
2022-10-02T09:29:17.886Z,21.3
2022-10-02T09:34:19.842Z,21.2
2022-10-02T09:39:21.781Z,22.9
2022-10-02T09:44:24.132Z,22.1
2022-10-02T09:49:26.121Z,24.8
2022-10-02T09:54:28.044Z,24.8
2022-10-02T09:59:29.985Z,28.7
2022-10-02T10:05:07.156Z,31.4
2022-10-02T10:09:39.537Z,30.6
2022-10-02T10:14:41.934Z,31
2022-10-02T10:19:43.845Z,30.8
2022-10-02T10:24:45.853Z,26.3
2022-10-02T10:29:47.982Z,29.5
2022-10-02T10:34:50.524Z,30.5
2022-10-02T10:39:52.446Z,27.4
2022-10-02T10:44:55.052Z,27.2
2022-10-02T10:49:56.938Z,27.1
2022-10-02T10:54:58.863Z,26.6
2022-10-02T11:00:00.783Z,24.2
2022-10-02T11:05:02.746Z,26.4
2022-10-02T11:10:04.766Z,27.4
2022-10-02T11:15:07.103Z,25.4
2022-10-02T11:20:09.006Z,25.3
2022-10-02T11:25:14.714Z,22.7
2022-10-02T11:30:17.090Z,21.9
2022-10-02T11:35:19.720Z,21.8
2022-10-02T11:40:21.667Z,21.9
2022-10-02T11:45:24.146Z,22.6
2022-10-02T11:50:26.123Z,22.6
2022-10-02T11:55:28.023Z,24.5
2022-10-02T12:00:30.102Z,26.8
2022-10-02T12:05:32.037Z,26.7
2022-10-02T12:10:34.231Z,26
2022-10-02T12:15:36.559Z,24.1
2022-10-02T12:20:38.528Z,24
2022-10-02T12:25:40.475Z,25.7
2022-10-02T12:30:42.454Z,26.7
2022-10-02T12:35:44.649Z,25.5
2022-10-02T12:40:46.834Z,23.5
2022-10-02T12:45:48.902Z,21.7
2022-10-02T12:50:50.948Z,20.8
2022-10-02T12:55:52.806Z,20.4
2022-10-02T13:00:54.902Z,20.1
2022-10-02T13:05:57.095Z,19.6
2022-10-02T13:10:59.038Z,19.5
2022-10-02T13:16:00.945Z,19.4
2022-10-02T13:21:02.864Z,19
2022-10-02T13:26:04.819Z,19
2022-10-02T13:31:06.833Z,19.2
2022-10-02T13:36:09.151Z,19.1
2022-10-02T13:41:11.644Z,19.2
2022-10-02T13:46:13.733Z,19.6
2022-10-02T13:51:15.766Z,19.5
2022-10-02T13:56:17.663Z,19.1
2022-10-02T14:01:19.791Z,18.9
2022-10-02T14:06:21.812Z,18.6
2022-10-02T14:11:23.788Z,18.8
2022-10-02T14:16:25.966Z,18.9
2022-10-02T14:21:27.956Z,19
2022-10-02T14:26:30.222Z,18.6
2022-10-02T14:31:32.437Z,18.3
2022-10-02T14:36:34.462Z,18
2022-10-02T14:41:37.471Z,17.6
2022-10-02T14:46:40.239Z,17.5
2022-10-02T14:51:42.161Z,17.4
2022-10-02T14:56:44.096Z,17.5
2022-10-02T15:01:45.948Z,17.5
2022-10-02T15:06:48.229Z,17.5
2022-10-02T15:11:50.186Z,17.5
2022-10-02T15:16:52.363Z,17.3
2022-10-02T15:21:54.358Z,17.2
2022-10-02T15:26:56.481Z,17
2022-10-02T15:31:59.216Z,16.8
2022-10-02T15:37:01.232Z,16.8
2022-10-02T15:42:03.210Z,16.6
2022-10-02T15:47:06.150Z,16.2
2022-10-02T15:52:08.224Z,16.2
2022-10-02T15:57:10.130Z,16.1
2022-10-02T16:02:12.484Z,15.7
2022-10-02T16:07:14.892Z,15.6
2022-10-02T16:12:17.457Z,15.5
2022-10-02T16:17:19.983Z,15.3
2022-10-02T16:22:22.366Z,15.2
2022-10-02T16:27:25.038Z,15
2022-10-02T16:32:27.106Z,15
2022-10-02T16:37:29.281Z,15
2022-10-02T16:42:31.317Z,15
2022-10-02T16:47:34.000Z,15
2022-10-02T16:52:36.239Z,14.9
2022-10-02T16:57:38.367Z,14.9
2022-10-02T17:02:40.899Z,14.9
2022-10-02T17:07:43.358Z,14.8
2022-10-02T17:12:45.282Z,14.9
2022-10-02T17:17:47.763Z,14.8
2022-10-02T17:22:50.089Z,14.9
2022-10-02T17:27:52.282Z,14.8
2022-10-02T17:32:54.370Z,14.9
2022-10-02T17:37:56.340Z,14.8
2022-10-02T17:42:58.254Z,14.7
2022-10-02T17:48:00.551Z,14.7
2022-10-02T17:53:02.955Z,14.5
2022-10-02T17:58:05.166Z,14.5
2022-10-02T18:03:07.244Z,14.6
2022-10-02T18:08:09.394Z,14.6
2022-10-02T18:13:11.358Z,14.6
2022-10-02T18:18:13.583Z,14.6
2022-10-02T18:23:15.592Z,14.6
2022-10-02T18:28:17.789Z,14.6
2022-10-02T18:33:19.862Z,14.5
2022-10-02T18:38:21.799Z,14.4
2022-10-02T18:43:23.675Z,14.3
2022-10-02T18:48:25.706Z,14.3
2022-10-02T18:53:27.636Z,14.3
2022-10-02T18:58:29.622Z,14.3
2022-10-02T19:03:33.069Z,14.2
2022-10-02T19:08:35.236Z,14.2
2022-10-02T19:13:37.677Z,14.2
2022-10-02T19:18:39.872Z,14.2
2022-10-02T19:23:41.751Z,14.3
2022-10-02T19:28:43.662Z,14.2
2022-10-02T19:33:45.580Z,14.3
2022-10-02T19:38:47.457Z,14.2
2022-10-02T19:43:49.435Z,14.2
2022-10-02T19:48:51.358Z,14.2
2022-10-02T19:53:53.352Z,14.2
2022-10-02T19:58:55.228Z,14.1
2022-10-02T20:03:57.584Z,14.1
2022-10-02T20:08:59.836Z,14.1
2022-10-02T20:14:01.711Z,14.1
2022-10-02T20:19:04.729Z,14.2
2022-10-02T20:24:06.816Z,14.2
2022-10-02T20:29:08.928Z,14.2
2022-10-02T20:34:11.077Z,14.2
2022-10-02T20:39:13.351Z,14.2
2022-10-02T20:44:15.255Z,14.2
2022-10-02T20:54:18.321Z,14
2022-10-02T20:59:20.266Z,14
2022-10-02T21:04:22.368Z,13.9
2022-10-02T21:09:24.488Z,13.8
2022-10-02T21:14:26.448Z,13.7
2022-10-02T21:19:28.822Z,13.5
2022-10-02T21:24:30.784Z,13.4
2022-10-02T21:29:32.935Z,13.5
2022-10-02T21:34:35.296Z,13.4
2022-10-02T21:39:37.389Z,13.4
2022-10-02T21:44:39.458Z,13.4
2022-10-02T21:49:42.824Z,13.4
2022-10-02T21:54:44.733Z,13.4
2022-10-02T21:59:46.666Z,13.3
2022-10-02T22:04:48.749Z,13.2
2022-10-02T22:09:50.861Z,13.1
2022-10-02T22:14:52.809Z,13
2022-10-02T22:19:55.148Z,13
2022-10-02T22:24:57.047Z,13
2022-10-02T22:29:59.133Z,13
2022-10-02T22:35:01.260Z,13
2022-10-02T22:40:03.298Z,13
2022-10-02T22:45:05.241Z,12.9
2022-10-02T22:50:07.900Z,12.8
2022-10-02T22:55:09.835Z,12.8
2022-10-02T23:00:12.161Z,12.7
2022-10-02T23:05:14.558Z,12.8
2022-10-02T23:10:16.821Z,12.7
2022-10-02T23:15:18.774Z,12.8
2022-10-02T23:20:20.660Z,12.7
2022-10-02T23:25:22.561Z,12.7
2022-10-02T23:30:24.380Z,12.6
2022-10-02T23:35:27.212Z,12.6
2022-10-02T23:40:29.597Z,12.6
2022-10-02T23:45:31.670Z,12.6
2022-10-02T23:50:33.748Z,12.6
2022-10-02T23:55:35.650Z,12.6
